BAW82 DNAA-EGLL
Flight info
| Callsign | BAW82 |
|---|---|
| Flight time | N/A |
| Altitude | 38000 |
| Route | ABC UT416 USNAV DCT OSLEK/N0479F370 DCT GITEP UT258 ERKEL/N0477F380 UR978 NADJI/N0470F400 UR978 KAMER DCT NAFOQ DCT SURJU DCT PADKO DCT MRM DCT MTL DCT ETREK DCT MADOT DCT MOPEM DCT CACHI DCT AVLON DCT OKRIX DCT BRY/N0460F360 DCT CLM DCT KOPOR DCT ABNUR DCT DIMAL DCT ALESO |
| Aircraft | B772/H-SDE1E3FGHIJ3J5J6M1M2P2RWXYZ/LB1D1 |
Departure
| Time | 2026-05-01 12:25 |
|---|---|
| Airport | Nnamdi Azikiwe International Airport (DNAA) |
Arrival
| Time | N/A |
|---|---|
| Airport | London Heathrow Airport (EGLL) |
| Time | Latitude | Longitude | Altitude | Speed | Heading |
|---|---|---|---|---|---|
| 2026-05-01 11:52 | 9.00707 | 7.26844 | 1130 ft | 0 kts | 179° |
| 2026-05-01 12:14 | 9.00708 | 7.26844 | 1130 ft | 1 kts | 179° |
| 2026-05-01 12:14 | 9.00723 | 7.26844 | 1134 ft | 3 kts | 179° |
| 2026-05-01 12:15 | 9.00743 | 7.26844 | 1134 ft | 3 kts | 179° |
| 2026-05-01 12:15 | 9.00762 | 7.26844 | 1133 ft | 2 kts | 179° |
| 2026-05-01 12:15 | 9.00778 | 7.26844 | 1133 ft | 3 kts | 197° |
| 2026-05-01 12:15 | 9.00792 | 7.26852 | 1136 ft | 3 kts | 252° |
| 2026-05-01 12:16 | 9.00793 | 7.26871 | 1136 ft | 3 kts | 273° |
| 2026-05-01 12:16 | 9.00793 | 7.26879 | 1136 ft | 0 kts | 271° |
| 2026-05-01 12:18 | 9.00793 | 7.26877 | 1130 ft | 1 kts | 271° |
| 2026-05-01 12:19 | 9.00794 | 7.26827 | 1133 ft | 13 kts | 270° |
| 2026-05-01 12:19 | 9.00793 | 7.26741 | 1133 ft | 11 kts | 270° |
| 2026-05-01 12:19 | 9.00794 | 7.26665 | 1132 ft | 9 kts | 276° |
| 2026-05-01 12:19 | 9.00823 | 7.26638 | 1120 ft | 5 kts | 356° |
| 2026-05-01 12:20 | 9.00870 | 7.26655 | 1120 ft | 10 kts | 30° |
| 2026-05-01 12:20 | 9.00943 | 7.26709 | 1115 ft | 17 kts | 35° |
| 2026-05-01 12:20 | 9.01036 | 7.26774 | 1118 ft | 16 kts | 34° |
| 2026-05-01 12:20 | 9.01120 | 7.26832 | 1119 ft | 14 kts | 35° |
| 2026-05-01 12:21 | 9.01192 | 7.26883 | 1136 ft | 12 kts | 35° |
| 2026-05-01 12:21 | 9.01254 | 7.26927 | 1136 ft | 10 kts | 35° |
| 2026-05-01 12:21 | 9.01308 | 7.26966 | 1135 ft | 10 kts | 35° |
| 2026-05-01 12:21 | 9.01382 | 7.27018 | 1136 ft | 17 kts | 35° |
| 2026-05-01 12:22 | 9.01488 | 7.27093 | 1137 ft | 18 kts | 35° |
| 2026-05-01 12:22 | 9.01559 | 7.27144 | 1137 ft | 19 kts | 35° |
| 2026-05-01 12:22 | 9.01713 | 7.27253 | 1136 ft | 20 kts | 35° |
| 2026-05-01 12:22 | 9.01786 | 7.27304 | 1138 ft | 16 kts | 34° |
| 2026-05-01 12:23 | 9.01871 | 7.27359 | 1139 ft | 14 kts | 21° |
| 2026-05-01 12:23 | 9.01937 | 7.27341 | 1141 ft | 1 kts | 309° |
| 2026-05-01 12:23 | 9.01938 | 7.27339 | 1141 ft | 0 kts | 309° |
| 2026-05-01 12:24 | 9.01966 | 7.27292 | 1140 ft | 21 kts | 294° |
| 2026-05-01 12:24 | 9.01950 | 7.27217 | 1136 ft | 10 kts | 224° |
| 2026-05-01 12:24 | 9.01914 | 7.27189 | 1137 ft | 0 kts | 215° |
| 2026-05-01 12:25 | 9.01850 | 7.27144 | 1135 ft | 24 kts | 215° |
| 2026-05-01 12:25 | 9.00641 | 7.26298 | 1179 ft | 177 kts | 214° |
| 2026-05-01 12:25 | 8.99570 | 7.25545 | 1901 ft | 191 kts | 214° |
| 2026-05-01 12:26 | 8.98420 | 7.24749 | 2811 ft | 209 kts | 215° |
| 2026-05-01 12:26 | 8.97024 | 7.22085 | 3909 ft | 232 kts | 279° |
| 2026-05-01 12:26 | 8.97727 | 7.20659 | 4504 ft | 231 kts | 319° |
| 2026-05-01 12:27 | 8.99158 | 7.19979 | 4903 ft | 229 kts | 355° |
| 2026-05-01 12:27 | 9.02324 | 7.19236 | 4921 ft | 236 kts | 341° |
| 2026-05-01 12:28 | 9.05353 | 7.18038 | 4910 ft | 233 kts | 338° |
| 2026-05-01 12:28 | 9.06845 | 7.17395 | 4918 ft | 233 kts | 338° |
| 2026-05-01 12:28 | 9.09822 | 7.16057 | 4914 ft | 234 kts | 337° |
| 2026-05-01 12:29 | 9.11288 | 7.15385 | 4920 ft | 234 kts | 336° |
| 2026-05-01 12:29 | 9.12775 | 7.14701 | 4921 ft | 234 kts | 337° |
| 2026-05-01 12:29 | 9.15821 | 7.13796 | 4892 ft | 229 kts | 9° |
| 2026-05-01 12:30 | 9.19236 | 7.14379 | 5445 ft | 266 kts | 11° |
| 2026-05-01 12:30 | 9.21074 | 7.14690 | 6175 ft | 267 kts | 13° |
| 2026-05-01 12:30 | 9.22904 | 7.14998 | 6955 ft | 269 kts | 13° |
| 2026-05-01 12:31 | 9.24769 | 7.15315 | 7580 ft | 275 kts | 13° |
| 2026-05-01 12:31 | 9.26653 | 7.15645 | 8180 ft | 280 kts | 13° |
| 2026-05-01 12:31 | 9.28588 | 7.15968 | 8882 ft | 283 kts | 13° |
| 2026-05-01 12:31 | 9.30541 | 7.16292 | 9575 ft | 286 kts | 12° |
| 2026-05-01 12:32 | 9.32525 | 7.16622 | 10163 ft | 293 kts | 12° |
| 2026-05-01 12:32 | 9.36849 | 7.17350 | 10553 ft | 338 kts | 12° |
| 2026-05-01 12:32 | 9.39254 | 7.17754 | 10715 ft | 362 kts | 12° |
| 2026-05-01 12:33 | 9.41816 | 7.18182 | 10984 ft | 381 kts | 11° |
| 2026-05-01 12:33 | 9.44478 | 7.18626 | 11536 ft | 391 kts | 11° |
| 2026-05-01 12:33 | 9.47194 | 7.19078 | 12216 ft | 398 kts | 11° |
| 2026-05-01 12:33 | 9.49943 | 7.19535 | 12999 ft | 403 kts | 10° |
| 2026-05-01 12:34 | 9.52716 | 7.19997 | 13759 ft | 408 kts | 10° |
| 2026-05-01 12:34 | 9.55542 | 7.20468 | 14407 ft | 414 kts | 11° |
| 2026-05-01 12:34 | 9.58403 | 7.20946 | 15087 ft | 419 kts | 11° |
| 2026-05-01 12:34 | 9.61311 | 7.21433 | 15771 ft | 425 kts | 11° |
| 2026-05-01 12:35 | 9.64257 | 7.21926 | 16490 ft | 431 kts | 11° |
| 2026-05-01 12:35 | 9.67231 | 7.22425 | 17199 ft | 436 kts | 12° |
| 2026-05-01 12:35 | 9.70248 | 7.22930 | 17883 ft | 442 kts | 12° |
| 2026-05-01 12:35 | 9.73298 | 7.23441 | 18497 ft | 447 kts | 12° |
| 2026-05-01 12:36 | 9.76344 | 7.23951 | 19097 ft | 452 kts | 12° |
| 2026-05-01 12:36 | 9.79480 | 7.24476 | 19617 ft | 458 kts | 12° |
| 2026-05-01 12:36 | 9.82660 | 7.24915 | 20178 ft | 464 kts | 7° |
| 2026-05-01 12:36 | 9.85916 | 7.25024 | 20752 ft | 470 kts | 1° |
| 2026-05-01 12:37 | 9.89213 | 7.24791 | 21307 ft | 476 kts | 355° |
| 2026-05-01 12:37 | 9.92471 | 7.24359 | 21803 ft | 480 kts | 354° |
| 2026-05-01 12:37 | 9.95796 | 7.23894 | 22272 ft | 485 kts | 354° |
| 2026-05-01 12:37 | 9.99154 | 7.23425 | 22731 ft | 489 kts | 354° |
| 2026-05-01 12:38 | 10.02499 | 7.22970 | 23185 ft | 492 kts | 354° |
| 2026-05-01 12:38 | 10.05914 | 7.22516 | 23600 ft | 495 kts | 354° |
| 2026-05-01 12:38 | 10.09348 | 7.22068 | 23955 ft | 499 kts | 354° |
| 2026-05-01 12:38 | 10.12797 | 7.21622 | 24298 ft | 502 kts | 354° |
| 2026-05-01 12:39 | 10.16270 | 7.21174 | 24662 ft | 504 kts | 354° |
| 2026-05-01 12:39 | 10.19754 | 7.20724 | 24995 ft | 506 kts | 354° |
| 2026-05-01 12:39 | 10.23256 | 7.20270 | 25308 ft | 508 kts | 354° |
| 2026-05-01 12:39 | 10.26777 | 7.19813 | 25577 ft | 511 kts | 354° |
| 2026-05-01 12:40 | 10.30312 | 7.19355 | 25836 ft | 513 kts | 354° |
| 2026-05-01 12:40 | 10.33873 | 7.18889 | 26061 ft | 516 kts | 354° |
| 2026-05-01 12:40 | 10.37431 | 7.18411 | 26314 ft | 517 kts | 353° |
| 2026-05-01 12:40 | 10.41019 | 7.17924 | 26606 ft | 517 kts | 353° |
| 2026-05-01 12:41 | 10.44586 | 7.17438 | 26957 ft | 516 kts | 353° |
| 2026-05-01 12:41 | 10.48139 | 7.16956 | 27341 ft | 514 kts | 353° |
| 2026-05-01 12:41 | 10.51686 | 7.16476 | 27704 ft | 513 kts | 354° |
| 2026-05-01 12:41 | 10.55185 | 7.16005 | 28042 ft | 512 kts | 353° |
| 2026-05-01 12:42 | 10.58715 | 7.15530 | 28405 ft | 511 kts | 353° |
| 2026-05-01 12:42 | 10.62240 | 7.15063 | 28759 ft | 510 kts | 354° |
| 2026-05-01 12:42 | 10.65755 | 7.14601 | 29123 ft | 509 kts | 354° |
| 2026-05-01 12:42 | 10.69276 | 7.14139 | 29492 ft | 508 kts | 354° |
| 2026-05-01 12:43 | 10.72786 | 7.13679 | 29841 ft | 507 kts | 354° |
| 2026-05-01 12:43 | 10.76277 | 7.13220 | 30181 ft | 506 kts | 354° |
| 2026-05-01 12:43 | 10.79773 | 7.12759 | 30487 ft | 505 kts | 354° |
| 2026-05-01 12:43 | 10.83257 | 7.12299 | 30783 ft | 504 kts | 354° |
| 2026-05-01 12:44 | 10.86732 | 7.11840 | 31087 ft | 503 kts | 354° |
| 2026-05-01 12:44 | 10.90200 | 7.11382 | 31391 ft | 502 kts | 354° |
| 2026-05-01 12:44 | 10.97123 | 7.10468 | 32010 ft | 500 kts | 354° |
| 2026-05-01 12:45 | 11.04002 | 7.09559 | 32603 ft | 498 kts | 353° |
| 2026-05-01 12:45 | 11.07394 | 7.09110 | 32881 ft | 498 kts | 354° |
| 2026-05-01 12:45 | 11.10837 | 7.08655 | 33160 ft | 497 kts | 354° |
| 2026-05-01 12:46 | 11.14263 | 7.08202 | 33459 ft | 496 kts | 354° |
| 2026-05-01 12:46 | 11.17690 | 7.07748 | 33739 ft | 495 kts | 354° |
| 2026-05-01 12:46 | 11.21108 | 7.07297 | 33992 ft | 495 kts | 354° |
| 2026-05-01 12:46 | 11.24515 | 7.06846 | 34275 ft | 492 kts | 353° |
| 2026-05-01 12:47 | 11.27907 | 7.06397 | 34571 ft | 490 kts | 353° |
| 2026-05-01 12:47 | 11.31297 | 7.05948 | 34806 ft | 490 kts | 353° |
| 2026-05-01 12:47 | 11.34689 | 7.05498 | 35032 ft | 491 kts | 354° |
| 2026-05-01 12:47 | 11.38079 | 7.05049 | 35243 ft | 490 kts | 353° |
| 2026-05-01 12:48 | 11.41455 | 7.04602 | 35496 ft | 490 kts | 354° |
| 2026-05-01 12:48 | 11.44841 | 7.04153 | 35731 ft | 490 kts | 354° |
| 2026-05-01 12:48 | 11.48221 | 7.03705 | 35980 ft | 489 kts | 353° |
| 2026-05-01 12:48 | 11.51593 | 7.03255 | 36226 ft | 489 kts | 354° |
| 2026-05-01 12:49 | 11.54970 | 7.02803 | 36460 ft | 488 kts | 353° |
| 2026-05-01 12:49 | 11.58323 | 7.02354 | 36711 ft | 488 kts | 353° |
| 2026-05-01 12:49 | 11.61635 | 7.01910 | 36842 ft | 490 kts | 354° |
| 2026-05-01 12:49 | 11.65028 | 7.01455 | 37010 ft | 490 kts | 354° |
| 2026-05-01 12:50 | 11.68414 | 7.01001 | 37235 ft | 490 kts | 354° |
| 2026-05-01 12:50 | 11.71798 | 7.00547 | 37413 ft | 490 kts | 353° |
| 2026-05-01 12:50 | 11.75169 | 7.00094 | 37687 ft | 489 kts | 353° |
| 2026-05-01 12:50 | 11.78348 | 6.99668 | 37782 ft | 491 kts | 354° |
| 2026-05-01 12:51 | 11.85147 | 6.98757 | 37833 ft | 493 kts | 353° |
| 2026-05-01 12:52 | 11.95253 | 6.97399 | 37836 ft | 487 kts | 354° |
| 2026-05-01 12:52 | 12.05358 | 6.96042 | 37842 ft | 490 kts | 353° |
| 2026-05-01 12:53 | 12.15577 | 6.94668 | 37834 ft | 496 kts | 353° |
| 2026-05-01 12:54 | 12.22419 | 6.93747 | 37826 ft | 493 kts | 353° |
| 2026-05-01 12:54 | 12.32523 | 6.92386 | 37829 ft | 488 kts | 353° |
| 2026-05-01 12:55 | 12.42643 | 6.91023 | 37823 ft | 489 kts | 353° |
| 2026-05-01 12:56 | 12.49400 | 6.90112 | 37832 ft | 490 kts | 353° |
| 2026-05-01 12:56 | 12.56161 | 6.89213 | 37831 ft | 491 kts | 353° |
| 2026-05-01 12:57 | 12.62926 | 6.88317 | 37823 ft | 492 kts | 353° |
| 2026-05-01 12:57 | 12.73123 | 6.86962 | 37827 ft | 492 kts | 353° |
| 2026-05-01 12:58 | 12.79869 | 6.86063 | 37822 ft | 492 kts | 353° |
| 2026-05-01 12:59 | 12.90061 | 6.84706 | 37822 ft | 493 kts | 353° |
| 2026-05-01 12:59 | 13.00243 | 6.83334 | 37822 ft | 491 kts | 353° |
| 2026-05-01 13:00 | 13.09263 | 6.82112 | 37820 ft | 491 kts | 352° |
| 2026-05-01 13:01 | 13.19471 | 6.80619 | 37821 ft | 494 kts | 351° |
| 2026-05-01 13:02 | 13.29626 | 6.78908 | 37816 ft | 496 kts | 350° |
| 2026-05-01 13:07 | 14.04915 | 6.66937 | 37818 ft | 496 kts | 349° |
| 2026-05-01 13:08 | 14.11708 | 6.65854 | 37822 ft | 497 kts | 349° |
| 2026-05-01 13:08 | 14.18552 | 6.64762 | 37819 ft | 497 kts | 349° |
| 2026-05-01 13:09 | 14.25389 | 6.63671 | 37803 ft | 497 kts | 349° |
| 2026-05-01 13:09 | 14.32227 | 6.62578 | 37817 ft | 496 kts | 349° |
| 2026-05-01 13:10 | 14.39063 | 6.61485 | 37813 ft | 496 kts | 349° |
| 2026-05-01 13:10 | 14.45887 | 6.60393 | 37816 ft | 496 kts | 349° |
| 2026-05-01 13:11 | 14.52707 | 6.59302 | 37822 ft | 495 kts | 349° |
| 2026-05-01 13:11 | 14.59529 | 6.58209 | 37822 ft | 495 kts | 349° |
| 2026-05-01 13:12 | 14.66344 | 6.57117 | 37818 ft | 496 kts | 349° |
| 2026-05-01 13:12 | 14.73122 | 6.56030 | 37819 ft | 495 kts | 349° |
| 2026-05-01 13:13 | 14.79957 | 6.54933 | 37812 ft | 495 kts | 349° |
| 2026-05-01 13:13 | 14.86767 | 6.53840 | 37819 ft | 495 kts | 348° |
| 2026-05-01 13:14 | 14.93582 | 6.52745 | 37820 ft | 495 kts | 348° |
| 2026-05-01 13:14 | 15.00381 | 6.51652 | 37828 ft | 495 kts | 348° |
| 2026-05-01 13:15 | 15.07197 | 6.50556 | 37835 ft | 495 kts | 349° |
| 2026-05-01 13:15 | 15.14022 | 6.49457 | 37815 ft | 496 kts | 348° |
| 2026-05-01 13:16 | 15.20796 | 6.48366 | 37818 ft | 495 kts | 348° |
| 2026-05-01 13:16 | 15.27657 | 6.47261 | 37823 ft | 495 kts | 348° |
| 2026-05-01 13:17 | 15.41227 | 6.45073 | 37829 ft | 494 kts | 348° |
| 2026-05-01 13:18 | 15.51422 | 6.43427 | 37831 ft | 494 kts | 348° |
| 2026-05-01 13:18 | 15.58206 | 6.42332 | 37834 ft | 494 kts | 348° |
| 2026-05-01 13:19 | 15.65001 | 6.41235 | 37831 ft | 494 kts | 348° |
| 2026-05-01 13:20 | 15.75180 | 6.39591 | 37832 ft | 494 kts | 348° |
| 2026-05-01 13:20 | 15.81970 | 6.38497 | 37832 ft | 494 kts | 348° |
| 2026-05-01 13:21 | 15.92163 | 6.36857 | 37841 ft | 493 kts | 348° |
| 2026-05-01 13:21 | 15.98985 | 6.36166 | 37830 ft | 494 kts | 358° |
| 2026-05-01 13:22 | 16.05812 | 6.36973 | 37830 ft | 497 kts | 11° |
| 2026-05-01 13:22 | 16.12531 | 6.38725 | 37835 ft | 497 kts | 12° |
| 2026-05-01 13:23 | 16.19223 | 6.40543 | 37835 ft | 497 kts | 12° |
| 2026-05-01 13:23 | 16.25929 | 6.42339 | 37844 ft | 497 kts | 11° |
| 2026-05-01 13:24 | 16.32595 | 6.44097 | 37836 ft | 497 kts | 11° |
| 2026-05-01 13:25 | 16.42711 | 6.46753 | 37831 ft | 498 kts | 11° |
| 2026-05-01 13:25 | 16.49390 | 6.48509 | 37831 ft | 498 kts | 11° |
| 2026-05-01 13:26 | 16.56113 | 6.50280 | 37834 ft | 498 kts | 11° |
| 2026-05-01 13:26 | 16.62834 | 6.52052 | 37824 ft | 498 kts | 11° |
| 2026-05-01 13:27 | 16.69561 | 6.53826 | 37833 ft | 499 kts | 11° |
| 2026-05-01 13:27 | 16.79673 | 6.56496 | 37832 ft | 500 kts | 11° |
| 2026-05-01 13:28 | 16.89752 | 6.59161 | 37830 ft | 500 kts | 11° |
| 2026-05-01 13:29 | 17.03264 | 6.62737 | 37827 ft | 502 kts | 11° |
| 2026-05-01 13:31 | 17.23618 | 6.68135 | 37827 ft | 503 kts | 11° |
| 2026-05-01 13:32 | 17.40581 | 6.72643 | 37825 ft | 504 kts | 10° |
| 2026-05-01 13:33 | 17.57521 | 6.77153 | 37823 ft | 503 kts | 10° |
| 2026-05-01 13:34 | 17.71105 | 6.80777 | 37828 ft | 502 kts | 10° |
| 2026-05-01 13:35 | 17.81277 | 6.83493 | 37829 ft | 501 kts | 10° |
| 2026-05-01 13:36 | 17.91417 | 6.86204 | 37827 ft | 501 kts | 10° |
| 2026-05-01 13:36 | 18.01512 | 6.88906 | 37833 ft | 502 kts | 10° |
| 2026-05-01 13:37 | 18.07184 | 6.90427 | 37835 ft | 502 kts | 10° |
| 2026-05-01 13:37 | 18.13950 | 6.92242 | 37832 ft | 503 kts | 10° |
| 2026-05-01 13:38 | 18.24133 | 6.94976 | 37837 ft | 503 kts | 10° |
| 2026-05-01 13:39 | 18.30931 | 6.96803 | 37850 ft | 503 kts | 10° |
| 2026-05-01 13:39 | 18.37731 | 6.98633 | 37844 ft | 504 kts | 10° |
| 2026-05-01 13:40 | 18.44518 | 7.00461 | 37830 ft | 503 kts | 10° |
| 2026-05-01 13:40 | 18.51266 | 7.02280 | 37829 ft | 503 kts | 10° |
| 2026-05-01 13:41 | 18.58055 | 7.04111 | 37837 ft | 502 kts | 10° |
| 2026-05-01 13:41 | 18.64828 | 7.05941 | 37859 ft | 502 kts | 9° |
| 2026-05-01 13:42 | 18.71600 | 7.07773 | 37834 ft | 502 kts | 9° |
| 2026-05-01 13:42 | 18.78376 | 7.09608 | 37835 ft | 502 kts | 9° |
| 2026-05-01 13:43 | 18.85154 | 7.11450 | 37853 ft | 503 kts | 9° |
| 2026-05-01 13:43 | 18.91929 | 7.13294 | 37839 ft | 503 kts | 9° |
| 2026-05-01 13:44 | 18.98680 | 7.15118 | 37854 ft | 503 kts | 9° |
| 2026-05-01 13:44 | 19.05454 | 7.16948 | 37838 ft | 504 kts | 9° |
| 2026-05-01 13:45 | 19.12264 | 7.18805 | 37852 ft | 504 kts | 9° |
| 2026-05-01 13:45 | 19.19069 | 7.20671 | 37847 ft | 505 kts | 9° |
| 2026-05-01 13:46 | 19.25884 | 7.22542 | 37849 ft | 505 kts | 9° |
| 2026-05-01 13:46 | 19.32689 | 7.24412 | 37868 ft | 506 kts | 8° |
| 2026-05-01 13:47 | 19.39515 | 7.26287 | 37853 ft | 506 kts | 8° |
| 2026-05-01 13:47 | 19.46347 | 7.28165 | 37849 ft | 507 kts | 8° |
| 2026-05-01 13:48 | 19.53178 | 7.30045 | 37854 ft | 507 kts | 8° |
| 2026-05-01 13:48 | 19.60007 | 7.31927 | 37855 ft | 507 kts | 8° |
| 2026-05-01 13:49 | 19.66843 | 7.33813 | 37881 ft | 507 kts | 8° |
| 2026-05-01 13:49 | 19.73629 | 7.35686 | 37861 ft | 507 kts | 8° |
| 2026-05-01 13:50 | 19.80459 | 7.37573 | 37859 ft | 506 kts | 8° |
| 2026-05-01 13:50 | 19.87274 | 7.39457 | 37862 ft | 506 kts | 8° |
| 2026-05-01 13:51 | 19.94092 | 7.41343 | 37870 ft | 505 kts | 8° |
| 2026-05-01 13:51 | 20.00887 | 7.43226 | 37880 ft | 505 kts | 8° |
| 2026-05-01 13:52 | 20.07684 | 7.45110 | 37872 ft | 505 kts | 8° |
| 2026-05-01 13:52 | 20.14503 | 7.47003 | 37872 ft | 505 kts | 8° |
| 2026-05-01 13:53 | 20.21308 | 7.48893 | 37878 ft | 505 kts | 8° |
| 2026-05-01 13:53 | 20.31506 | 7.51729 | 37907 ft | 505 kts | 7° |
| 2026-05-01 13:54 | 20.38311 | 7.53623 | 37881 ft | 506 kts | 7° |
| 2026-05-01 13:54 | 20.45138 | 7.55527 | 37879 ft | 507 kts | 7° |
| 2026-05-01 13:55 | 20.51965 | 7.57432 | 37878 ft | 507 kts | 7° |
| 2026-05-01 13:55 | 20.58793 | 7.59340 | 37875 ft | 507 kts | 7° |
| 2026-05-01 13:56 | 20.65620 | 7.61251 | 37901 ft | 507 kts | 7° |
| 2026-05-01 13:56 | 20.72466 | 7.63169 | 37880 ft | 508 kts | 7° |
| 2026-05-01 13:57 | 20.78162 | 7.64769 | 37882 ft | 509 kts | 7° |
| 2026-05-01 13:57 | 20.86178 | 7.67029 | 37888 ft | 509 kts | 7° |
| 2026-05-01 13:58 | 20.93045 | 7.68858 | 37892 ft | 504 kts | 2° |
| 2026-05-01 13:58 | 20.99953 | 7.69412 | 37892 ft | 492 kts | 350° |
| 2026-05-01 13:59 | 21.06719 | 7.68704 | 37883 ft | 482 kts | 343° |
| 2026-05-01 13:59 | 21.13362 | 7.67688 | 37888 ft | 482 kts | 343° |
| 2026-05-01 14:00 | 21.20065 | 7.66688 | 37891 ft | 483 kts | 343° |
| 2026-05-01 14:00 | 21.26729 | 7.65739 | 37893 ft | 483 kts | 343° |
| 2026-05-01 14:01 | 21.33409 | 7.64805 | 37890 ft | 484 kts | 343° |
| 2026-05-01 14:01 | 21.40094 | 7.63871 | 37896 ft | 484 kts | 343° |
| 2026-05-01 14:02 | 21.46778 | 7.62935 | 37891 ft | 484 kts | 343° |
| 2026-05-01 14:02 | 21.53463 | 7.61996 | 37891 ft | 483 kts | 343° |
| 2026-05-01 14:03 | 21.60136 | 7.61058 | 37894 ft | 483 kts | 343° |
| 2026-05-01 14:03 | 21.66802 | 7.60120 | 37890 ft | 482 kts | 343° |
| 2026-05-01 14:04 | 21.73443 | 7.59186 | 37900 ft | 480 kts | 343° |
| 2026-05-01 14:04 | 21.78935 | 7.58412 | 37890 ft | 478 kts | 343° |
| 2026-05-01 14:05 | 21.86633 | 7.57324 | 37898 ft | 476 kts | 343° |
| 2026-05-01 14:05 | 21.93209 | 7.56394 | 37893 ft | 476 kts | 343° |
| 2026-05-01 14:06 | 21.99739 | 7.55469 | 37908 ft | 476 kts | 343° |
| 2026-05-01 14:06 | 22.06308 | 7.54539 | 37905 ft | 477 kts | 343° |
| 2026-05-01 14:07 | 22.12898 | 7.53605 | 37904 ft | 477 kts | 343° |
| 2026-05-01 14:08 | 22.22791 | 7.52203 | 37898 ft | 478 kts | 343° |
| 2026-05-01 14:08 | 22.28276 | 7.51424 | 37903 ft | 478 kts | 343° |
| 2026-05-01 14:09 | 22.34878 | 7.50486 | 37917 ft | 478 kts | 342° |
| 2026-05-01 14:09 | 22.41497 | 7.49545 | 37910 ft | 479 kts | 342° |
| 2026-05-01 14:10 | 22.48102 | 7.48605 | 37914 ft | 479 kts | 342° |
| 2026-05-01 14:10 | 22.54707 | 7.47664 | 37908 ft | 479 kts | 342° |
| 2026-05-01 14:11 | 22.61323 | 7.46720 | 37937 ft | 478 kts | 342° |
| 2026-05-01 14:11 | 22.71236 | 7.45304 | 37916 ft | 479 kts | 343° |
| 2026-05-01 14:12 | 22.77831 | 7.44410 | 37919 ft | 480 kts | 343° |
| 2026-05-01 14:12 | 22.84449 | 7.43483 | 37913 ft | 479 kts | 343° |
| 2026-05-01 14:13 | 22.91051 | 7.42530 | 37911 ft | 479 kts | 343° |
| 2026-05-01 14:13 | 22.97665 | 7.41574 | 37916 ft | 479 kts | 343° |
| 2026-05-01 14:14 | 23.04271 | 7.40623 | 37920 ft | 479 kts | 343° |
| 2026-05-01 14:14 | 23.10892 | 7.39672 | 37926 ft | 479 kts | 342° |
| 2026-05-01 14:15 | 23.17511 | 7.38720 | 37932 ft | 479 kts | 342° |
| 2026-05-01 14:15 | 23.24115 | 7.37769 | 37936 ft | 479 kts | 343° |
| 2026-05-01 14:16 | 23.30682 | 7.36821 | 37940 ft | 479 kts | 342° |
| 2026-05-01 14:16 | 23.37291 | 7.35868 | 37944 ft | 477 kts | 342° |
| 2026-05-01 14:17 | 23.43863 | 7.34919 | 37947 ft | 477 kts | 342° |
| 2026-05-01 14:17 | 23.50448 | 7.33966 | 37952 ft | 476 kts | 342° |
| 2026-05-01 14:18 | 23.57048 | 7.33161 | 37958 ft | 478 kts | 345° |
| 2026-05-01 14:18 | 23.62578 | 7.32614 | 37963 ft | 480 kts | 345° |
| 2026-05-01 14:19 | 23.70357 | 7.31843 | 37970 ft | 480 kts | 345° |
| 2026-05-01 14:19 | 23.77011 | 7.31151 | 37971 ft | 479 kts | 345° |
| 2026-05-01 14:20 | 23.86969 | 7.30096 | 37974 ft | 479 kts | 344° |
| 2026-05-01 14:21 | 23.93562 | 7.29397 | 37991 ft | 479 kts | 344° |
| 2026-05-01 14:21 | 24.00172 | 7.28698 | 37986 ft | 477 kts | 344° |
| 2026-05-01 14:22 | 24.10055 | 7.27650 | 37979 ft | 474 kts | 344° |
| 2026-05-01 14:22 | 24.16621 | 7.26951 | 37981 ft | 474 kts | 344° |
| 2026-05-01 14:23 | 24.23183 | 7.26252 | 38000 ft | 475 kts | 344° |
| 2026-05-01 14:23 | 24.29781 | 7.25547 | 37989 ft | 477 kts | 344° |
| 2026-05-01 14:24 | 24.36453 | 7.24835 | 37969 ft | 479 kts | 344° |
| 2026-05-01 14:24 | 24.43045 | 7.24132 | 37976 ft | 479 kts | 344° |
| 2026-05-01 14:25 | 24.49704 | 7.23422 | 37969 ft | 480 kts | 344° |
| 2026-05-01 14:25 | 24.56363 | 7.22711 | 37969 ft | 481 kts | 344° |
| 2026-05-01 14:26 | 24.66346 | 7.21643 | 37973 ft | 480 kts | 344° |
| 2026-05-01 14:27 | 24.72997 | 7.20930 | 37973 ft | 479 kts | 344° |
| 2026-05-01 14:27 | 24.79633 | 7.20218 | 37968 ft | 478 kts | 344° |
| 2026-05-01 14:28 | 24.89556 | 7.19151 | 37972 ft | 476 kts | 344° |
| 2026-05-01 14:28 | 24.96137 | 7.18444 | 37963 ft | 474 kts | 344° |
| 2026-05-01 14:29 | 25.02684 | 7.17742 | 37972 ft | 473 kts | 344° |
| 2026-05-01 14:30 | 25.15736 | 7.16336 | 38031 ft | 473 kts | 344° |
| 2026-05-01 14:31 | 25.25539 | 7.15282 | 37988 ft | 470 kts | 344° |
| 2026-05-01 14:31 | 25.32033 | 7.14582 | 37989 ft | 468 kts | 344° |
| 2026-05-01 14:32 | 25.38509 | 7.13882 | 37980 ft | 467 kts | 344° |
| 2026-05-01 14:32 | 25.44975 | 7.13181 | 37973 ft | 468 kts | 344° |
| 2026-05-01 14:33 | 25.51461 | 7.12478 | 37972 ft | 468 kts | 345° |
| 2026-05-01 14:33 | 25.57933 | 7.11779 | 37956 ft | 465 kts | 345° |
| 2026-05-01 14:34 | 25.64361 | 7.11083 | 37966 ft | 463 kts | 345° |
| 2026-05-01 14:34 | 25.70777 | 7.10386 | 37978 ft | 463 kts | 345° |
| 2026-05-01 14:35 | 25.77151 | 7.09690 | 37957 ft | 463 kts | 345° |
| 2026-05-01 14:35 | 25.83584 | 7.08989 | 37959 ft | 464 kts | 345° |
| 2026-05-01 14:36 | 25.90014 | 7.08290 | 37933 ft | 463 kts | 346° |
| 2026-05-01 14:36 | 25.96445 | 7.07588 | 37933 ft | 465 kts | 345° |
| 2026-05-01 14:37 | 26.02915 | 7.06885 | 37920 ft | 464 kts | 345° |
| 2026-05-01 14:37 | 26.09346 | 7.06195 | 37968 ft | 464 kts | 346° |
| 2026-05-01 14:38 | 26.15777 | 7.05506 | 37930 ft | 464 kts | 346° |
| 2026-05-01 14:38 | 26.22225 | 7.04813 | 37903 ft | 465 kts | 346° |
| 2026-05-01 14:39 | 26.28640 | 7.04123 | 37924 ft | 466 kts | 346° |
| 2026-05-01 14:39 | 26.35095 | 7.03427 | 37892 ft | 465 kts | 346° |
| 2026-05-01 14:40 | 26.41420 | 7.02746 | 37914 ft | 464 kts | 346° |
| 2026-05-01 14:40 | 26.47850 | 7.02053 | 37880 ft | 462 kts | 346° |
| 2026-05-01 14:41 | 26.54119 | 7.01376 | 37891 ft | 461 kts | 346° |
| 2026-05-01 14:41 | 26.60513 | 7.00681 | 37885 ft | 461 kts | 346° |
| 2026-05-01 14:42 | 26.66913 | 6.99985 | 37894 ft | 463 kts | 346° |
| 2026-05-01 14:42 | 26.73349 | 6.99283 | 37874 ft | 465 kts | 346° |
| 2026-05-01 14:43 | 26.79769 | 6.98592 | 37875 ft | 462 kts | 346° |
| 2026-05-01 14:43 | 26.85092 | 6.98017 | 37877 ft | 460 kts | 346° |
| 2026-05-01 14:44 | 26.91456 | 6.97324 | 37876 ft | 458 kts | 346° |
| 2026-05-01 14:44 | 27.00981 | 6.96283 | 37915 ft | 459 kts | 346° |
| 2026-05-01 14:45 | 27.10459 | 6.95248 | 37871 ft | 455 kts | 346° |
| 2026-05-01 14:46 | 27.16755 | 6.94560 | 37872 ft | 454 kts | 346° |
| 2026-05-01 14:46 | 27.26187 | 6.93526 | 37875 ft | 453 kts | 346° |
| 2026-05-01 14:47 | 27.32471 | 6.92835 | 37890 ft | 454 kts | 346° |
| 2026-05-01 14:48 | 27.41855 | 6.91805 | 37867 ft | 453 kts | 346° |
| 2026-05-01 14:48 | 27.51252 | 6.90772 | 37869 ft | 452 kts | 346° |
| 2026-05-01 14:49 | 27.63766 | 6.89393 | 37869 ft | 451 kts | 346° |
| 2026-05-01 14:50 | 27.76282 | 6.88009 | 37862 ft | 452 kts | 346° |
| 2026-05-01 14:51 | 27.85679 | 6.86969 | 37870 ft | 452 kts | 346° |
| 2026-05-01 14:52 | 27.95074 | 6.85927 | 37858 ft | 451 kts | 346° |
| 2026-05-01 14:53 | 28.04434 | 6.84887 | 37851 ft | 450 kts | 346° |
| 2026-05-01 14:53 | 28.10671 | 6.84193 | 37824 ft | 451 kts | 346° |
| 2026-05-01 14:54 | 28.16983 | 6.83787 | 37856 ft | 457 kts | 351° |
| 2026-05-01 14:54 | 28.23362 | 6.83739 | 37866 ft | 460 kts | 351° |
| 2026-05-01 14:55 | 28.29778 | 6.83711 | 37861 ft | 461 kts | 351° |
| 2026-05-01 14:55 | 28.36205 | 6.83663 | 37860 ft | 462 kts | 351° |
| 2026-05-01 14:56 | 28.42644 | 6.83601 | 37857 ft | 462 kts | 351° |
| 2026-05-01 14:56 | 28.49107 | 6.83535 | 37857 ft | 461 kts | 351° |
| 2026-05-01 14:57 | 28.55499 | 6.83469 | 37851 ft | 461 kts | 351° |
| 2026-05-01 14:57 | 28.65114 | 6.83369 | 37845 ft | 460 kts | 351° |
| 2026-05-01 14:58 | 28.71511 | 6.83303 | 37848 ft | 459 kts | 351° |
| 2026-05-01 14:58 | 28.77916 | 6.83236 | 37843 ft | 459 kts | 351° |
| 2026-05-01 14:59 | 28.84311 | 6.83170 | 37856 ft | 459 kts | 351° |
| 2026-05-01 14:59 | 28.90699 | 6.83106 | 37844 ft | 458 kts | 351° |
| 2026-05-01 15:00 | 29.00247 | 6.83004 | 37843 ft | 458 kts | 351° |
| 2026-05-01 15:01 | 29.06619 | 6.82939 | 37843 ft | 457 kts | 351° |
| 2026-05-01 15:01 | 29.12985 | 6.82876 | 37846 ft | 457 kts | 351° |
| 2026-05-01 15:02 | 29.19298 | 6.82808 | 37833 ft | 456 kts | 351° |
| 2026-05-01 15:02 | 29.25627 | 6.82741 | 37844 ft | 454 kts | 351° |
| 2026-05-01 15:03 | 29.31956 | 6.82675 | 37835 ft | 454 kts | 351° |
| 2026-05-01 15:03 | 29.38288 | 6.82609 | 37863 ft | 454 kts | 351° |
| 2026-05-01 15:04 | 29.44621 | 6.82542 | 37845 ft | 454 kts | 351° |
| 2026-05-01 15:04 | 29.50943 | 6.82476 | 37838 ft | 454 kts | 351° |
| 2026-05-01 15:05 | 29.57269 | 6.82409 | 37838 ft | 454 kts | 351° |
| 2026-05-01 15:05 | 29.63547 | 6.82344 | 37843 ft | 453 kts | 351° |
| 2026-05-01 15:06 | 29.69869 | 6.82277 | 37843 ft | 454 kts | 351° |
| 2026-05-01 15:06 | 29.76184 | 6.82211 | 37842 ft | 453 kts | 351° |
| 2026-05-01 15:07 | 29.82494 | 6.82145 | 37843 ft | 452 kts | 351° |
| 2026-05-01 15:07 | 29.88796 | 6.82078 | 37848 ft | 452 kts | 351° |
| 2026-05-01 15:08 | 29.95094 | 6.82011 | 37885 ft | 452 kts | 351° |
| 2026-05-01 15:08 | 30.01363 | 6.81945 | 37855 ft | 451 kts | 351° |
| 2026-05-01 15:09 | 30.07644 | 6.81879 | 37856 ft | 450 kts | 351° |
| 2026-05-01 15:09 | 30.13910 | 6.81812 | 37856 ft | 450 kts | 351° |
| 2026-05-01 15:10 | 30.20139 | 6.81746 | 37855 ft | 449 kts | 351° |
| 2026-05-01 15:10 | 30.29530 | 6.81645 | 37869 ft | 449 kts | 351° |
| 2026-05-01 15:11 | 30.38911 | 6.81546 | 37875 ft | 448 kts | 351° |
| 2026-05-01 15:12 | 30.45150 | 6.81479 | 37875 ft | 448 kts | 351° |
| 2026-05-01 15:12 | 30.54494 | 6.81378 | 37880 ft | 448 kts | 351° |
| 2026-05-01 15:14 | 30.70079 | 6.81211 | 37882 ft | 448 kts | 351° |
| 2026-05-01 15:14 | 30.79418 | 6.81110 | 37928 ft | 449 kts | 351° |
| 2026-05-01 15:15 | 30.91853 | 6.80980 | 38324 ft | 444 kts | 351° |
| 2026-05-01 15:16 | 30.98044 | 6.80911 | 38682 ft | 444 kts | 351° |
| 2026-05-01 15:16 | 31.04195 | 6.80846 | 39034 ft | 442 kts | 351° |
| 2026-05-01 15:17 | 31.10337 | 6.80780 | 39429 ft | 440 kts | 351° |
| 2026-05-01 15:18 | 31.18478 | 6.80691 | 39813 ft | 440 kts | 351° |
| 2026-05-01 15:19 | 31.30851 | 6.80548 | 39921 ft | 449 kts | 351° |
| 2026-05-01 15:19 | 31.40308 | 6.80445 | 39928 ft | 455 kts | 352° |
| 2026-05-01 15:20 | 31.49837 | 6.80345 | 39928 ft | 456 kts | 352° |
| 2026-05-01 15:21 | 31.56143 | 6.80283 | 39913 ft | 449 kts | 352° |
| 2026-05-01 15:21 | 31.62370 | 6.80214 | 39962 ft | 450 kts | 352° |
| 2026-05-01 15:22 | 31.71786 | 6.80106 | 39937 ft | 452 kts | 352° |
| 2026-05-01 15:22 | 31.78086 | 6.80037 | 39935 ft | 452 kts | 352° |
| 2026-05-01 15:23 | 31.84382 | 6.79969 | 39939 ft | 452 kts | 352° |
| 2026-05-01 15:23 | 31.90692 | 6.79899 | 39964 ft | 452 kts | 352° |
| 2026-05-01 15:24 | 31.96988 | 6.79830 | 39943 ft | 451 kts | 352° |
| 2026-05-01 15:24 | 32.03215 | 6.79762 | 39940 ft | 450 kts | 352° |
| 2026-05-01 15:25 | 32.09476 | 6.79693 | 39946 ft | 449 kts | 352° |
| 2026-05-01 15:25 | 32.15719 | 6.79624 | 39949 ft | 448 kts | 352° |
| 2026-05-01 15:26 | 32.21965 | 6.79554 | 39961 ft | 448 kts | 353° |
| 2026-05-01 15:26 | 32.28205 | 6.79484 | 39955 ft | 448 kts | 353° |
| 2026-05-01 15:27 | 32.34436 | 6.79415 | 39960 ft | 448 kts | 353° |
| 2026-05-01 15:28 | 32.43787 | 6.79310 | 39990 ft | 447 kts | 353° |
| 2026-05-01 15:28 | 32.50011 | 6.79241 | 39973 ft | 448 kts | 353° |
| 2026-05-01 15:29 | 32.59349 | 6.79136 | 39972 ft | 449 kts | 353° |
| 2026-05-01 15:30 | 32.71867 | 6.78995 | 39995 ft | 450 kts | 353° |
| 2026-05-01 15:31 | 32.90676 | 6.78784 | 39983 ft | 453 kts | 353° |
| 2026-05-01 15:32 | 33.03307 | 6.78641 | 39998 ft | 454 kts | 354° |
| 2026-05-01 15:34 | 33.22322 | 6.78427 | 39997 ft | 456 kts | 354° |